sensor_id;sensor_type;location;lat;lon;timestamp;temperature;humidity
77218;DHT22;66214;51.302;17.068;2024-01-11T00:01:35;-7.29;76.98
77218;DHT22;66214;51.302;17.068;2024-01-11T00:04:03;-7.22;76.92
77218;DHT22;66214;51.302;17.068;2024-01-11T00:06:42;-7.19;76.74
77218;DHT22;66214;51.302;17.068;2024-01-11T00:09:11;-7.16;76.49
77218;DHT22;66214;51.302;17.068;2024-01-11T00:11:40;-7.16;76.26
77218;DHT22;66214;51.302;17.068;2024-01-11T00:14:08;-7.18;76.08
77218;DHT22;66214;51.302;17.068;2024-01-11T00:16:37;-7.21;75.92
77218;DHT22;66214;51.302;17.068;2024-01-11T00:19:05;-7.27;75.95
77218;DHT22;66214;51.302;17.068;2024-01-11T00:21:34;-7.29;76.18
77218;DHT22;66214;51.302;17.068;2024-01-11T00:24:02;-7.33;76.52
77218;DHT22;66214;51.302;17.068;2024-01-11T00:26:31;-7.31;76.80
77218;DHT22;66214;51.302;17.068;2024-01-11T00:28:59;-7.30;77.04
77218;DHT22;66214;51.302;17.068;2024-01-11T00:31:28;-7.27;77.29
77218;DHT22;66214;51.302;17.068;2024-01-11T00:33:57;-7.25;77.35
77218;DHT22;66214;51.302;17.068;2024-01-11T00:36:29;-7.22;77.47
77218;DHT22;66214;51.302;17.068;2024-01-11T00:39:01;-7.21;77.56
77218;DHT22;66214;51.302;17.068;2024-01-11T00:41:29;-7.20;77.67
77218;DHT22;66214;51.302;17.068;2024-01-11T00:43:58;-7.18;77.78
77218;DHT22;66214;51.302;17.068;2024-01-11T00:46:26;-7.16;77.74
77218;DHT22;66214;51.302;17.068;2024-01-11T00:48:55;-7.14;77.76
77218;DHT22;66214;51.302;17.068;2024-01-11T00:51:26;-7.10;77.71
77218;DHT22;66214;51.302;17.068;2024-01-11T00:53:55;-7.08;77.65
77218;DHT22;66214;51.302;17.068;2024-01-11T00:56:25;-7.10;77.67
77218;DHT22;66214;51.302;17.068;2024-01-11T00:58:54;-7.10;77.70
77218;DHT22;66214;51.302;17.068;2024-01-11T01:01:22;-7.09;77.75
77218;DHT22;66214;51.302;17.068;2024-01-11T01:03:51;-7.09;77.78
77218;DHT22;66214;51.302;17.068;2024-01-11T01:06:19;-7.05;77.79
77218;DHT22;66214;51.302;17.068;2024-01-11T01:08:49;-7.00;77.68
77218;DHT22;66214;51.302;17.068;2024-01-11T01:11:18;-6.95;77.57
77218;DHT22;66214;51.302;17.068;2024-01-11T01:13:48;-6.98;77.50
77218;DHT22;66214;51.302;17.068;2024-01-11T01:16:18;-6.97;77.48
77218;DHT22;66214;51.302;17.068;2024-01-11T01:18:47;-6.98;77.29
77218;DHT22;66214;51.302;17.068;2024-01-11T01:21:16;-6.99;77.06
77218;DHT22;66214;51.302;17.068;2024-01-11T01:23:46;-6.99;76.86
77218;DHT22;66214;51.302;17.068;2024-01-11T01:26:14;-7.00;76.60
77218;DHT22;66214;51.302;17.068;2024-01-11T01:28:43;-7.03;76.37
77218;DHT22;66214;51.302;17.068;2024-01-11T01:31:12;-7.09;76.21
77218;DHT22;66214;51.302;17.068;2024-01-11T01:34:06;-7.19;76.25
77218;DHT22;66214;51.302;17.068;2024-01-11T01:36:37;-7.32;76.19
77218;DHT22;66214;51.302;17.068;2024-01-11T01:39:05;-7.43;76.20
77218;DHT22;66214;51.302;17.068;2024-01-11T01:41:37;-7.51;76.39
77218;DHT22;66214;51.302;17.068;2024-01-11T01:44:05;-7.57;76.58
77218;DHT22;66214;51.302;17.068;2024-01-11T01:46:33;-7.59;76.81
77218;DHT22;66214;51.302;17.068;2024-01-11T01:49:02;-7.60;77.09
77218;DHT22;66214;51.302;17.068;2024-01-11T01:51:32;-7.60;77.40
77218;DHT22;66214;51.302;17.068;2024-01-11T01:54:02;-7.58;77.68
77218;DHT22;66214;51.302;17.068;2024-01-11T01:56:36;-7.54;77.74
77218;DHT22;66214;51.302;17.068;2024-01-11T01:59:04;-7.53;77.82
77218;DHT22;66214;51.302;17.068;2024-01-11T02:05:02;-7.43;78.27
77218;DHT22;66214;51.302;17.068;2024-01-11T02:07:31;-7.36;78.09
77218;DHT22;66214;51.302;17.068;2024-01-11T02:10:00;-7.32;77.81
77218;DHT22;66214;51.302;17.068;2024-01-11T02:12:30;-7.31;77.60
77218;DHT22;66214;51.302;17.068;2024-01-11T02:14:58;-7.30;77.30
77218;DHT22;66214;51.302;17.068;2024-01-11T02:17:27;-7.32;77.12
77218;DHT22;66214;51.302;17.068;2024-01-11T02:19:56;-7.37;77.06
77218;DHT22;66214;51.302;17.068;2024-01-11T02:22:28;-7.41;76.95
77218;DHT22;66214;51.302;17.068;2024-01-11T02:25:00;-7.43;76.97
77218;DHT22;66214;51.302;17.068;2024-01-11T02:27:29;-7.41;77.09
77218;DHT22;66214;51.302;17.068;2024-01-11T02:29:58;-7.39;77.27
77218;DHT22;66214;51.302;17.068;2024-01-11T02:32:27;-7.33;77.54
77218;DHT22;66214;51.302;17.068;2024-01-11T02:34:55;-7.30;77.80
77218;DHT22;66214;51.302;17.068;2024-01-11T02:37:26;-7.17;78.05
77218;DHT22;66214;51.302;17.068;2024-01-11T02:39:55;-7.07;78.07
77218;DHT22;66214;51.302;17.068;2024-01-11T02:42:24;-6.99;78.12
77218;DHT22;66214;51.302;17.068;2024-01-11T02:44:54;-6.92;78.18
77218;DHT22;66214;51.302;17.068;2024-01-11T02:47:23;-6.86;78.15
77218;DHT22;66214;51.302;17.068;2024-01-11T02:49:51;-6.78;78.10
77218;DHT22;66214;51.302;17.068;2024-01-11T02:52:20;-6.70;78.08
77218;DHT22;66214;51.302;17.068;2024-01-11T02:54:50;-6.61;78.02
77218;DHT22;66214;51.302;17.068;2024-01-11T02:57:19;-6.51;77.90
77218;DHT22;66214;51.302;17.068;2024-01-11T02:59:49;-6.41;77.82
77218;DHT22;66214;51.302;17.068;2024-01-11T03:02:19;-6.34;77.72
77218;DHT22;66214;51.302;17.068;2024-01-11T03:04:48;-6.24;77.61
77218;DHT22;66214;51.302;17.068;2024-01-11T03:07:16;-6.19;77.38
77218;DHT22;66214;51.302;17.068;2024-01-11T03:09:44;-6.15;77.14
77218;DHT22;66214;51.302;17.068;2024-01-11T03:12:13;-6.11;77.09
77218;DHT22;66214;51.302;17.068;2024-01-11T03:14:41;-6.10;77.06
77218;DHT22;66214;51.302;17.068;2024-01-11T03:17:11;-6.06;76.96
77218;DHT22;66214;51.302;17.068;2024-01-11T03:19:40;-6.04;76.94
77218;DHT22;66214;51.302;17.068;2024-01-11T03:22:08;-6.02;76.60
77218;DHT22;66214;51.302;17.068;2024-01-11T03:24:38;-6.01;76.33
77218;DHT22;66214;51.302;17.068;2024-01-11T03:27:09;-6.01;76.40
77218;DHT22;66214;51.302;17.068;2024-01-11T03:29:38;-6.00;76.31
77218;DHT22;66214;51.302;17.068;2024-01-11T03:32:06;-6.02;76.27
77218;DHT22;66214;51.302;17.068;2024-01-11T03:34:34;-6.03;76.24
77218;DHT22;66214;51.302;17.068;2024-01-11T03:37:03;-6.03;76.25
77218;DHT22;66214;51.302;17.068;2024-01-11T03:39:32;-6.01;76.17
77218;DHT22;66214;51.302;17.068;2024-01-11T03:45:29;-5.93;75.62
77218;DHT22;66214;51.302;17.068;2024-01-11T03:47:59;-5.97;75.30
77218;DHT22;66214;51.302;17.068;2024-01-11T03:50:30;-6.03;75.08
77218;DHT22;66214;51.302;17.068;2024-01-11T03:52:59;-6.09;74.98
77218;DHT22;66214;51.302;17.068;2024-01-11T03:55:28;-6.17;74.87
77218;DHT22;66214;51.302;17.068;2024-01-11T03:57:56;-6.28;74.74
77218;DHT22;66214;51.302;17.068;2024-01-11T04:00:25;-6.39;74.72
77218;DHT22;66214;51.302;17.068;2024-01-11T04:02:53;-6.45;74.71
77218;DHT22;66214;51.302;17.068;2024-01-11T04:05:22;-6.51;74.79
77218;DHT22;66214;51.302;17.068;2024-01-11T04:07:51;-6.54;74.89
77218;DHT22;66214;51.302;17.068;2024-01-11T04:10:20;-6.54;75.12
77218;DHT22;66214;51.302;17.068;2024-01-11T04:12:50;-6.53;75.51
77218;DHT22;66214;51.302;17.068;2024-01-11T04:15:19;-6.49;75.70
77218;DHT22;66214;51.302;17.068;2024-01-11T04:17:48;-6.46;75.88
77218;DHT22;66214;51.302;17.068;2024-01-11T04:23:47;-6.27;76.41
77218;DHT22;66214;51.302;17.068;2024-01-11T04:26:17;-6.14;75.99
77218;DHT22;66214;51.302;17.068;2024-01-11T04:28:45;-6.02;75.47
77218;DHT22;66214;51.302;17.068;2024-01-11T04:31:15;-5.92;74.92
77218;DHT22;66214;51.302;17.068;2024-01-11T04:33:46;-5.80;73.99
77218;DHT22;66214;51.302;17.068;2024-01-11T04:36:15;-5.66;73.74
77218;DHT22;66214;51.302;17.068;2024-01-11T04:38:43;-5.53;73.29
77218;DHT22;66214;51.302;17.068;2024-01-11T04:41:15;-5.39;73.04
77218;DHT22;66214;51.302;17.068;2024-01-11T04:43:44;-5.25;72.52
77218;DHT22;66214;51.302;17.068;2024-01-11T04:48:45;-4.98;71.42
77218;DHT22;66214;51.302;17.068;2024-01-11T04:51:15;-4.85;71.12
77218;DHT22;66214;51.302;17.068;2024-01-11T04:53:45;-4.75;70.12
77218;DHT22;66214;51.302;17.068;2024-01-11T04:56:15;-4.63;69.96
77218;DHT22;66214;51.302;17.068;2024-01-11T04:58:46;-4.51;70.04
77218;DHT22;66214;51.302;17.068;2024-01-11T05:03:45;-4.30;69.10
77218;DHT22;66214;51.302;17.068;2024-01-11T05:06:20;-4.14;67.76
77218;DHT22;66214;51.302;17.068;2024-01-11T05:08:50;-4.00;67.42
77218;DHT22;66214;51.302;17.068;2024-01-11T05:11:22;-3.88;67.44
77218;DHT22;66214;51.302;17.068;2024-01-11T05:13:54;-3.77;67.02
77218;DHT22;66214;51.302;17.068;2024-01-11T05:16:23;-3.68;66.40
77218;DHT22;66214;51.302;17.068;2024-01-11T05:18:55;-3.58;66.33
77218;DHT22;66214;51.302;17.068;2024-01-11T05:21:25;-3.49;66.38
77218;DHT22;66214;51.302;17.068;2024-01-11T05:23:54;-3.40;66.64
77218;DHT22;66214;51.302;17.068;2024-01-11T05:26:25;-3.34;65.82
77218;DHT22;66214;51.302;17.068;2024-01-11T05:28:53;-3.29;66.21
77218;DHT22;66214;51.302;17.068;2024-01-11T05:31:22;-3.28;65.59
77218;DHT22;66214;51.302;17.068;2024-01-11T05:33:54;-3.31;66.16
77218;DHT22;66214;51.302;17.068;2024-01-11T05:36:22;-3.36;65.75
77218;DHT22;66214;51.302;17.068;2024-01-11T05:38:50;-3.43;66.18
77218;DHT22;66214;51.302;17.068;2024-01-11T05:41:19;-3.48;66.07
77218;DHT22;66214;51.302;17.068;2024-01-11T05:43:49;-3.50;64.78
77218;DHT22;66214;51.302;17.068;2024-01-11T05:46:19;-3.49;64.54
77218;DHT22;66214;51.302;17.068;2024-01-11T05:48:49;-3.49;65.05
77218;DHT22;66214;51.302;17.068;2024-01-11T05:51:18;-3.52;64.22
77218;DHT22;66214;51.302;17.068;2024-01-11T05:53:47;-3.55;64.10
77218;DHT22;66214;51.302;17.068;2024-01-11T05:56:16;-3.58;63.37
77218;DHT22;66214;51.302;17.068;2024-01-11T05:58:47;-3.60;62.56
77218;DHT22;66214;51.302;17.068;2024-01-11T06:01:15;-3.61;62.64
77218;DHT22;66214;51.302;17.068;2024-01-11T06:03:44;-3.60;62.36
77218;DHT22;66214;51.302;17.068;2024-01-11T06:06:19;-3.60;61.86
77218;DHT22;66214;51.302;17.068;2024-01-11T06:08:47;-3.59;61.11
77218;DHT22;66214;51.302;17.068;2024-01-11T06:11:16;-3.57;60.41
77218;DHT22;66214;51.302;17.068;2024-01-11T06:13:46;-3.56;60.38
77218;DHT22;66214;51.302;17.068;2024-01-11T06:16:15;-3.56;60.57
77218;DHT22;66214;51.302;17.068;2024-01-11T06:18:43;-3.57;60.46
77218;DHT22;66214;51.302;17.068;2024-01-11T06:21:12;-3.60;60.94
77218;DHT22;66214;51.302;17.068;2024-01-11T08:03:44;-2.44;51.42
77218;DHT22;66214;51.302;17.068;2024-01-11T08:06:14;-2.34;51.09
77218;DHT22;66214;51.302;17.068;2024-01-11T08:08:43;-2.26;51.35
77218;DHT22;66214;51.302;17.068;2024-01-11T08:11:15;-2.19;51.28
77218;DHT22;66214;51.302;17.068;2024-01-11T08:14:11;-2.09;51.80
77218;DHT22;66214;51.302;17.068;2024-01-11T08:16:40;-2.00;51.35
77218;DHT22;66214;51.302;17.068;2024-01-11T08:19:10;-1.90;50.03
77218;DHT22;66214;51.302;17.068;2024-01-11T08:21:42;-1.82;49.62
77218;DHT22;66214;51.302;17.068;2024-01-11T08:24:13;-1.74;49.66
77218;DHT22;66214;51.302;17.068;2024-01-11T08:26:43;-1.69;49.65
77218;DHT22;66214;51.302;17.068;2024-01-11T08:29:14;-1.64;50.44
77218;DHT22;66214;51.302;17.068;2024-01-11T08:31:44;-1.62;50.37
77218;DHT22;66214;51.302;17.068;2024-01-11T08:34:19;-1.61;50.71
77218;DHT22;66214;51.302;17.068;2024-01-11T08:36:48;-1.58;50.46
77218;DHT22;66214;51.302;17.068;2024-01-11T08:39:23;-1.57;50.96
77218;DHT22;66214;51.302;17.068;2024-01-11T08:41:52;-1.55;51.08
77218;DHT22;66214;51.302;17.068;2024-01-11T08:44:20;-1.54;51.46
77218;DHT22;66214;51.302;17.068;2024-01-11T08:46:49;-1.51;51.78
77218;DHT22;66214;51.302;17.068;2024-01-11T08:49:18;-1.48;51.81
77218;DHT22;66214;51.302;17.068;2024-01-11T08:51:58;-1.47;51.95
77218;DHT22;66214;51.302;17.068;2024-01-11T08:54:30;-1.46;51.74
77218;DHT22;66214;51.302;17.068;2024-01-11T08:57:02;-1.46;51.76
77218;DHT22;66214;51.302;17.068;2024-01-11T08:59:38;-1.47;52.05
77218;DHT22;66214;51.302;17.068;2024-01-11T09:02:15;-1.45;52.50
77218;DHT22;66214;51.302;17.068;2024-01-11T09:04:43;-1.42;52.60
77218;DHT22;66214;51.302;17.068;2024-01-11T09:07:12;-1.38;52.89
77218;DHT22;66214;51.302;17.068;2024-01-11T09:09:41;-1.37;52.84
77218;DHT22;66214;51.302;17.068;2024-01-11T09:12:10;-1.35;52.70
77218;DHT22;66214;51.302;17.068;2024-01-11T09:14:38;-1.37;52.58
77218;DHT22;66214;51.302;17.068;2024-01-11T09:17:11;-1.41;52.53
77218;DHT22;66214;51.302;17.068;2024-01-11T09:19:39;-1.40;53.05
77218;DHT22;66214;51.302;17.068;2024-01-11T09:22:08;-1.38;53.07
77218;DHT22;66214;51.302;17.068;2024-01-11T09:24:38;-1.37;53.43
77218;DHT22;66214;51.302;17.068;2024-01-11T09:27:11;-1.34;53.68
77218;DHT22;66214;51.302;17.068;2024-01-11T09:29:45;-1.31;54.03
77218;DHT22;66214;51.302;17.068;2024-01-11T09:32:14;-1.27;53.91
77218;DHT22;66214;51.302;17.068;2024-01-11T09:34:43;-1.24;54.13
77218;DHT22;66214;51.302;17.068;2024-01-11T09:37:13;-1.20;54.41
77218;DHT22;66214;51.302;17.068;2024-01-11T09:39:42;-1.18;54.77
77218;DHT22;66214;51.302;17.068;2024-01-11T09:42:11;-1.14;54.77
77218;DHT22;66214;51.302;17.068;2024-01-11T09:44:43;-1.13;54.94
77218;DHT22;66214;51.302;17.068;2024-01-11T09:47:12;-1.10;55.10
77218;DHT22;66214;51.302;17.068;2024-01-11T09:49:45;-1.09;54.99
77218;DHT22;66214;51.302;17.068;2024-01-11T09:52:19;-1.04;55.49
77218;DHT22;66214;51.302;17.068;2024-01-11T09:54:49;-0.98;55.41
77218;DHT22;66214;51.302;17.068;2024-01-11T09:57:21;-0.97;55.48
77218;DHT22;66214;51.302;17.068;2024-01-11T09:59:56;-0.95;55.69
77218;DHT22;66214;51.302;17.068;2024-01-11T10:02:28;-0.94;55.57
77218;DHT22;66214;51.302;17.068;2024-01-11T10:05:04;-0.91;56.07
77218;DHT22;66214;51.302;17.068;2024-01-11T10:07:35;-0.88;56.22
77218;DHT22;66214;51.302;17.068;2024-01-11T10:10:06;-0.87;56.19
77218;DHT22;66214;51.302;17.068;2024-01-11T10:12:36;-0.86;55.92
77218;DHT22;66214;51.302;17.068;2024-01-11T10:15:07;-0.88;55.80
77218;DHT22;66214;51.302;17.068;2024-01-11T10:17:42;-0.88;56.29
77218;DHT22;66214;51.302;17.068;2024-01-11T10:20:13;-0.86;56.43
77218;DHT22;66214;51.302;17.068;2024-01-11T10:22:46;-0.84;56.39
77218;DHT22;66214;51.302;17.068;2024-01-11T10:25:20;-0.81;56.14
77218;DHT22;66214;51.302;17.068;2024-01-11T10:27:48;-0.82;56.51
77218;DHT22;66214;51.302;17.068;2024-01-11T10:30:21;-0.80;56.58
77218;DHT22;66214;51.302;17.068;2024-01-11T10:32:54;-0.78;56.72
77218;DHT22;66214;51.302;17.068;2024-01-11T10:35:26;-0.77;56.56
77218;DHT22;66214;51.302;17.068;2024-01-11T10:37:57;-0.73;56.56
77218;DHT22;66214;51.302;17.068;2024-01-11T10:40:27;-0.76;55.73
77218;DHT22;66214;51.302;17.068;2024-01-11T10:42:59;-0.73;56.06
77218;DHT22;66214;51.302;17.068;2024-01-11T10:45:29;-0.71;55.87
77218;DHT22;66214;51.302;17.068;2024-01-11T10:48:08;-0.67;56.42
77218;DHT22;66214;51.302;17.068;2024-01-11T10:50:45;-0.63;56.04
77218;DHT22;66214;51.302;17.068;2024-01-11T10:56:32;-0.60;56.14
77218;DHT22;66214;51.302;17.068;2024-01-11T10:59:04;-0.62;56.00
77218;DHT22;66214;51.302;17.068;2024-01-11T11:03:44;-0.69;56.23
77218;DHT22;66214;51.302;17.068;2024-01-11T11:06:42;-0.66;56.22
77218;DHT22;66214;51.302;17.068;2024-01-11T11:12:40;-0.50;55.44
77218;DHT22;66214;51.302;17.068;2024-01-11T11:15:15;-0.40;55.76
77218;DHT22;66214;51.302;17.068;2024-01-11T11:17:51;-0.32;55.77
77218;DHT22;66214;51.302;17.068;2024-01-11T11:20:21;-0.22;55.80
77218;DHT22;66214;51.302;17.068;2024-01-11T11:23:14;-0.19;55.83
77218;DHT22;66214;51.302;17.068;2024-01-11T11:25:45;-0.19;55.87
77218;DHT22;66214;51.302;17.068;2024-01-11T11:28:19;-0.22;55.98
77218;DHT22;66214;51.302;17.068;2024-01-11T11:30:51;-0.23;56.18
77218;DHT22;66214;51.302;17.068;2024-01-11T11:33:23;-0.28;56.13
77218;DHT22;66214;51.302;17.068;2024-01-11T11:35:54;-0.35;56.26
77218;DHT22;66214;51.302;17.068;2024-01-11T11:38:31;-0.40;56.61
77218;DHT22;66214;51.302;17.068;2024-01-11T11:41:01;-0.43;56.83
77218;DHT22;66214;51.302;17.068;2024-01-11T11:43:29;-0.42;56.95
77218;DHT22;66214;51.302;17.068;2024-01-11T11:45:59;-0.42;57.22
77218;DHT22;66214;51.302;17.068;2024-01-11T11:51:22;-0.44;57.35
77218;DHT22;66214;51.302;17.068;2024-01-11T11:53:52;-0.41;57.54
77218;DHT22;66214;51.302;17.068;2024-01-11T11:56:22;-0.41;57.80
77218;DHT22;66214;51.302;17.068;2024-01-11T11:58:51;-0.41;58.19
77218;DHT22;66214;51.302;17.068;2024-01-11T12:01:23;-0.33;58.37
77218;DHT22;66214;51.302;17.068;2024-01-11T12:03:53;-0.34;58.60
77218;DHT22;66214;51.302;17.068;2024-01-11T12:06:23;-0.38;59.09
77218;DHT22;66214;51.302;17.068;2024-01-11T12:08:53;-0.40;59.62
77218;DHT22;66214;51.302;17.068;2024-01-11T12:11:47;-0.46;59.90
77218;DHT22;66214;51.302;17.068;2024-01-11T12:14:16;-0.45;59.97
77218;DHT22;66214;51.302;17.068;2024-01-11T12:16:45;-0.41;60.26
77218;DHT22;66214;51.302;17.068;2024-01-11T12:19:38;-0.34;60.61
77218;DHT22;66214;51.302;17.068;2024-01-11T12:22:07;-0.34;61.16
77218;DHT22;66214;51.302;17.068;2024-01-11T12:24:37;-0.39;62.31
77218;DHT22;66214;51.302;17.068;2024-01-11T12:27:06;-0.43;62.88
77218;DHT22;66214;51.302;17.068;2024-01-11T12:29:35;-0.50;63.37
77218;DHT22;66214;51.302;17.068;2024-01-11T12:32:07;-0.58;63.74
77218;DHT22;66214;51.302;17.068;2024-01-11T12:34:39;-0.64;64.19
77218;DHT22;66214;51.302;17.068;2024-01-11T12:37:07;-0.71;64.12
77218;DHT22;66214;51.302;17.068;2024-01-11T12:39:37;-0.79;64.45
77218;DHT22;66214;51.302;17.068;2024-01-11T12:42:07;-0.88;64.68
77218;DHT22;66214;51.302;17.068;2024-01-11T12:44:37;-0.94;65.03
77218;DHT22;66214;51.302;17.068;2024-01-11T12:47:08;-1.05;66.05
77218;DHT22;66214;51.302;17.068;2024-01-11T12:49:36;-1.08;66.57
77218;DHT22;66214;51.302;17.068;2024-01-11T12:52:14;-1.07;66.52
77218;DHT22;66214;51.302;17.068;2024-01-11T12:54:46;-1.07;67.02
77218;DHT22;66214;51.302;17.068;2024-01-11T12:57:21;-1.04;67.37
77218;DHT22;66214;51.302;17.068;2024-01-11T13:06:49;-1.08;68.03
77218;DHT22;66214;51.302;17.068;2024-01-11T13:12:48;-1.09;68.52
77218;DHT22;66214;51.302;17.068;2024-01-11T13:15:23;-1.16;68.73
77218;DHT22;66214;51.302;17.068;2024-01-11T13:17:55;-1.20;68.74
77218;DHT22;66214;51.302;17.068;2024-01-11T13:20:25;-1.24;69.34
77218;DHT22;66214;51.302;17.068;2024-01-11T13:23:19;-1.35;69.60
77218;DHT22;66214;51.302;17.068;2024-01-11T13:32:39;-1.40;71.28
77218;DHT22;66214;51.302;17.068;2024-01-11T13:35:15;-1.40;71.44
77218;DHT22;66214;51.302;17.068;2024-01-11T13:38:13;-1.47;71.75
77218;DHT22;66214;51.302;17.068;2024-01-11T13:40:42;-1.49;71.72
77218;DHT22;66214;51.302;17.068;2024-01-11T13:43:13;-1.53;71.74
77218;DHT22;66214;51.302;17.068;2024-01-11T13:45:43;-1.58;72.45
77218;DHT22;66214;51.302;17.068;2024-01-11T13:48:13;-1.67;72.81
77218;DHT22;66214;51.302;17.068;2024-01-11T13:51:08;-1.73;73.83
77218;DHT22;66214;51.302;17.068;2024-01-11T13:57:15;-1.70;74.72
77218;DHT22;66214;51.302;17.068;2024-01-11T14:00:10;-1.65;74.74
77218;DHT22;66214;51.302;17.068;2024-01-11T14:03:42;-1.69;74.81
77218;DHT22;66214;51.302;17.068;2024-01-11T14:06:13;-1.73;75.17
77218;DHT22;66214;51.302;17.068;2024-01-11T14:08:43;-1.78;75.09
77218;DHT22;66214;51.302;17.068;2024-01-11T14:14:43;-1.94;76.88
77218;DHT22;66214;51.302;17.068;2024-01-11T14:20:10;-1.98;77.76
77218;DHT22;66214;51.302;17.068;2024-01-11T14:22:42;-2.02;78.31
77218;DHT22;66214;51.302;17.068;2024-01-11T14:25:18;-2.08;78.27
77218;DHT22;66214;51.302;17.068;2024-01-11T14:27:48;-2.09;77.78
77218;DHT22;66214;51.302;17.068;2024-01-11T14:30:19;-2.08;77.55
77218;DHT22;66214;51.302;17.068;2024-01-11T14:32:50;-2.10;77.67
77218;DHT22;66214;51.302;17.068;2024-01-11T14:35:20;-2.10;77.63
77218;DHT22;66214;51.302;17.068;2024-01-11T14:37:48;-2.11;77.94
77218;DHT22;66214;51.302;17.068;2024-01-11T14:40:17;-2.13;77.75
77218;DHT22;66214;51.302;17.068;2024-01-11T14:42:48;-2.12;78.01
77218;DHT22;66214;51.302;17.068;2024-01-11T14:45:18;-2.11;78.53
77218;DHT22;66214;51.302;17.068;2024-01-11T14:47:47;-2.13;79.45
77218;DHT22;66214;51.302;17.068;2024-01-11T14:50:16;-2.15;79.70
77218;DHT22;66214;51.302;17.068;2024-01-11T14:52:46;-2.16;79.79
77218;DHT22;66214;51.302;17.068;2024-01-11T14:55:15;-2.21;80.24
77218;DHT22;66214;51.302;17.068;2024-01-11T14:57:44;-2.26;80.12
77218;DHT22;66214;51.302;17.068;2024-01-11T15:00:13;-2.25;79.79
77218;DHT22;66214;51.302;17.068;2024-01-11T15:02:45;-2.30;80.49
77218;DHT22;66214;51.302;17.068;2024-01-11T15:05:15;-2.33;81.12
77218;DHT22;66214;51.302;17.068;2024-01-11T15:07:46;-2.32;81.61
77218;DHT22;66214;51.302;17.068;2024-01-11T15:10:15;-2.36;82.22
77218;DHT22;66214;51.302;17.068;2024-01-11T15:12:46;-2.35;82.61
77218;DHT22;66214;51.302;17.068;2024-01-11T15:15:15;-2.35;83.21
77218;DHT22;66214;51.302;17.068;2024-01-11T15:17:43;-2.35;82.80
77218;DHT22;66214;51.302;17.068;2024-01-11T17:03:42;-1.98;85.15
77218;DHT22;66214;51.302;17.068;2024-01-11T17:06:12;-1.95;85.07
77218;DHT22;66214;51.302;17.068;2024-01-11T17:08:48;-1.93;85.14
77218;DHT22;66214;51.302;17.068;2024-01-11T17:11:17;-1.91;85.21
77218;DHT22;66214;51.302;17.068;2024-01-11T17:13:48;-1.91;85.05
77218;DHT22;66214;51.302;17.068;2024-01-11T17:16:19;-1.91;84.86
77218;DHT22;66214;51.302;17.068;2024-01-11T17:18:54;-1.92;84.68
77218;DHT22;66214;51.302;17.068;2024-01-11T17:21:23;-1.95;84.65
77218;DHT22;66214;51.302;17.068;2024-01-11T17:23:53;-1.94;84.85
77218;DHT22;66214;51.302;17.068;2024-01-11T17:26:23;-1.96;85.21
77218;DHT22;66214;51.302;17.068;2024-01-11T17:28:53;-1.94;85.30
77218;DHT22;66214;51.302;17.068;2024-01-11T17:31:49;-1.91;85.70
77218;DHT22;66214;51.302;17.068;2024-01-11T17:34:18;-1.91;85.51
77218;DHT22;66214;51.302;17.068;2024-01-11T17:36:49;-1.90;85.27
77218;DHT22;66214;51.302;17.068;2024-01-11T17:39:17;-1.90;85.18
77218;DHT22;66214;51.302;17.068;2024-01-11T17:42:15;-1.88;85.28
77218;DHT22;66214;51.302;17.068;2024-01-11T17:44:44;-1.87;85.11
77218;DHT22;66214;51.302;17.068;2024-01-11T17:47:15;-1.85;85.20
77218;DHT22;66214;51.302;17.068;2024-01-11T17:49:44;-1.81;85.47
77218;DHT22;66214;51.302;17.068;2024-01-11T17:52:13;-1.78;85.71
77218;DHT22;66214;51.302;17.068;2024-01-11T17:54:42;-1.77;85.59
77218;DHT22;66214;51.302;17.068;2024-01-11T17:57:16;-1.76;85.27
77218;DHT22;66214;51.302;17.068;2024-01-11T17:59:44;-1.75;85.00
77218;DHT22;66214;51.302;17.068;2024-01-11T18:02:18;-1.72;85.10
77218;DHT22;66214;51.302;17.068;2024-01-11T18:04:46;-1.68;85.32
77218;DHT22;66214;51.302;17.068;2024-01-11T18:07:16;-1.66;85.60
77218;DHT22;66214;51.302;17.068;2024-01-11T18:09:45;-1.63;85.66
77218;DHT22;66214;51.302;17.068;2024-01-11T18:12:14;-1.63;85.48
77218;DHT22;66214;51.302;17.068;2024-01-11T22:03:41;-1.01;86.88
77218;DHT22;66214;51.302;17.068;2024-01-11T22:06:13;-0.98;86.76
77218;DHT22;66214;51.302;17.068;2024-01-11T22:08:41;-0.97;86.78
77218;DHT22;66214;51.302;17.068;2024-01-11T22:11:09;-0.97;86.65
77218;DHT22;66214;51.302;17.068;2024-01-11T22:13:37;-0.97;86.46
77218;DHT22;66214;51.302;17.068;2024-01-11T22:16:05;-1.00;86.39
77218;DHT22;66214;51.302;17.068;2024-01-11T22:18:35;-1.02;86.38
77218;DHT22;66214;51.302;17.068;2024-01-11T22:21:04;-1.07;86.26
77218;DHT22;66214;51.302;17.068;2024-01-11T22:23:33;-1.09;86.13
77218;DHT22;66214;51.302;17.068;2024-01-11T22:26:01;-1.09;86.21
77218;DHT22;66214;51.302;17.068;2024-01-11T22:31:44;-1.05;86.96
77218;DHT22;66214;51.302;17.068;2024-01-11T22:34:12;-1.00;87.32
77218;DHT22;66214;51.302;17.068;2024-01-11T22:36:44;-1.00;87.38
77218;DHT22;66214;51.302;17.068;2024-01-11T22:39:14;-1.00;87.17
77218;DHT22;66214;51.302;17.068;2024-01-11T22:41:42;-0.99;86.93
77218;DHT22;66214;51.302;17.068;2024-01-11T22:44:10;-1.00;86.71
77218;DHT22;66214;51.302;17.068;2024-01-11T22:46:38;-1.03;86.72
77218;DHT22;66214;51.302;17.068;2024-01-11T22:49:06;-1.07;86.68
77218;DHT22;66214;51.302;17.068;2024-01-11T22:51:35;-1.05;86.74
77218;DHT22;66214;51.302;17.068;2024-01-11T22:54:03;-1.03;86.98
77218;DHT22;66214;51.302;17.068;2024-01-11T22:56:31;-1.01;87.20
77218;DHT22;66214;51.302;17.068;2024-01-11T22:59:03;-1.00;87.30
77218;DHT22;66214;51.302;17.068;2024-01-11T23:03:41;-1.05;87.33
77218;DHT22;66214;51.302;17.068;2024-01-11T23:06:10;-1.04;86.91
77218;DHT22;66214;51.302;17.068;2024-01-11T23:08:38;-1.04;86.74
77218;DHT22;66214;51.302;17.068;2024-01-11T23:11:06;-1.04;86.69
77218;DHT22;66214;51.302;17.068;2024-01-11T23:13:34;-1.06;86.75
77218;DHT22;66214;51.302;17.068;2024-01-11T23:16:02;-1.06;86.84
77218;DHT22;66214;51.302;17.068;2024-01-11T23:18:30;-1.04;87.05
77218;DHT22;66214;51.302;17.068;2024-01-11T23:20:58;-1.03;87.34
77218;DHT22;66214;51.302;17.068;2024-01-11T23:23:26;-0.99;87.54
77218;DHT22;66214;51.302;17.068;2024-01-11T23:25:54;-0.97;87.50
77218;DHT22;66214;51.302;17.068;2024-01-11T23:28:23;-0.96;87.36
77218;DHT22;66214;51.302;17.068;2024-01-11T23:30:51;-0.97;87.13
77218;DHT22;66214;51.302;17.068;2024-01-11T23:33:19;-0.99;86.99
77218;DHT22;66214;51.302;17.068;2024-01-11T23:35:47;-1.00;86.85
77218;DHT22;66214;51.302;17.068;2024-01-11T23:38:16;-0.99;87.02
77218;DHT22;66214;51.302;17.068;2024-01-11T23:40:44;-0.96;87.32
77218;DHT22;66214;51.302;17.068;2024-01-11T23:43:12;-0.93;87.44
77218;DHT22;66214;51.302;17.068;2024-01-11T23:45:40;-0.89;87.65
77218;DHT22;66214;51.302;17.068;2024-01-11T23:48:08;-0.87;87.72
77218;DHT22;66214;51.302;17.068;2024-01-11T23:50:36;-0.86;87.61